Time;durP1;ratioP1;P1;durP2;ratioP2;P2;SDS_P1;SDS_P2;PMS_P1;PMS_P2;Temp;Humidity;BMP_temperature;BMP_pressure;BME280_temperature;BME280_humidity;BME280_pressure;Samples;Min_cycle;Max_cycle;Signal;HPM_P1;HPM_P2
2024/03/04 00:02:14;;;;;;;2.13;2.03;;;8.90;99.90;;;;;;5050542;28;20208;-78
2024/03/04 00:04:42;;;;;;;1.35;1.35;;;8.80;99.90;;;;;;5044111;28;20211;-80
2024/03/04 00:07:09;;;;;;;3.35;3.08;;;8.70;99.90;;;;;;5052736;28;20212;-80
2024/03/04 00:09:44;;;;;;;3.83;1.40;;;8.70;99.90;;;;;;5052847;28;20199;-80
2024/03/04 00:12:11;;;;;;;3.70;3.53;;;8.80;99.90;;;;;;5053529;28;20242;-80
2024/03/04 00:14:39;;;;;;;2.10;1.90;;;8.80;99.90;;;;;;5052168;28;20231;-80
2024/03/04 00:17:13;;;;;;;4.78;2.85;;;8.70;99.90;;;;;;5051008;28;20207;-79
2024/03/04 00:19:43;;;;;;;2.63;2.42;;;8.60;99.90;;;;;;5047144;28;20204;-78
2024/03/04 00:22:11;;;;;;;1.20;1.20;;;8.60;99.90;;;;;;5051105;28;20519;-80
2024/03/04 00:24:39;;;;;;;2.05;1.95;;;8.60;99.90;;;;;;5041715;28;20208;-82
2024/03/04 00:27:07;;;;;;;1.00;1.00;;;8.50;99.90;;;;;;5049241;28;20219;-81
2024/03/04 00:29:35;;;;;;;1.75;1.65;;;8.50;99.90;;;;;;5043607;28;20491;-79
2024/03/04 00:32:07;;;;;;;2.15;2.05;;;8.50;99.90;;;;;;5038358;28;20275;-80
2024/03/04 00:34:36;;;;;;;1.05;1.05;;;8.40;99.90;;;;;;5046993;28;20259;-80
2024/03/04 00:37:03;;;;;;;3.25;1.73;;;8.30;99.90;;;;;;5045986;28;20691;-79
2024/03/04 00:39:32;;;;;;;5.88;3.40;;;8.30;99.90;;;;;;5052521;28;20207;-80
2024/03/04 00:41:59;;;;;;;3.72;3.38;;;8.40;99.90;;;;;;5043784;28;20223;-82
2024/03/04 00:44:26;;;;;;;1.85;1.75;;;8.50;99.90;;;;;;5051542;28;20224;-78
2024/03/04 00:47:43;;;;;;;2.33;2.23;;;8.40;99.90;;;;;;5081197;27;1482251;-80
2024/03/04 00:50:11;;;;;;;1.00;1.00;;;8.30;99.90;;;;;;5111621;28;20435;-80
2024/03/04 00:52:39;;;;;;;3.35;3.13;;;8.30;99.90;;;;;;5114169;28;20209;-81
2024/03/04 00:55:10;;;;;;;3.28;1.75;;;8.30;99.90;;;;;;5102992;28;20270;-80
2024/03/04 00:57:38;;;;;;;3.90;3.70;;;8.30;99.90;;;;;;5109384;28;20426;-79
2024/03/04 01:00:08;;;;;;;2.45;2.35;;;8.20;99.90;;;;;;5100297;28;20352;-78
2024/03/04 01:02:38;;;;;;;0.98;0.98;;;8.20;99.90;;;;;;5094476;28;20206;-79
2024/03/04 01:05:05;;;;;;;4.90;4.65;;;8.30;99.90;;;;;;5112357;28;20269;-81
2024/03/04 01:07:33;;;;;;;1.95;1.85;;;8.20;99.90;;;;;;5099985;28;20234;-80
2024/03/04 01:10:00;;;;;;;3.25;3.15;;;8.00;99.90;;;;;;5108902;28;20206;-80
2024/03/04 01:12:27;;;;;;;2.88;2.78;;;8.10;99.90;;;;;;5087124;28;20208;-81
2024/03/04 01:14:54;;;;;;;1.90;1.80;;;7.90;99.90;;;;;;5098419;28;20234;-80
2024/03/04 01:17:22;;;;;;;4.88;3.67;;;7.90;99.90;;;;;;5105393;28;20210;-80
2024/03/04 01:19:51;;;;;;;4.00;3.67;;;7.90;99.90;;;;;;5100682;28;20715;-78
2024/03/04 01:22:18;;;;;;;3.60;3.30;;;7.90;99.90;;;;;;5107397;28;20491;-79
2024/03/04 01:24:50;;;;;;;3.35;3.25;;;8.00;99.90;;;;;;5108295;28;20328;-80
2024/03/04 01:27:17;;;;;;;13.95;3.90;;;8.20;99.90;;;;;;5111421;28;20479;-79
2024/03/04 01:29:44;;;;;;;16.33;5.60;;;8.20;99.90;;;;;;5096592;28;20506;-80
2024/03/04 01:32:11;;;;;;;5.43;3.72;;;8.20;99.90;;;;;;5094414;28;20206;-81
2024/03/04 01:34:39;;;;;;;9.25;2.78;;;8.10;99.90;;;;;;5107342;28;20220;-80
2024/03/04 01:37:09;;;;;;;2.00;1.90;;;8.20;99.90;;;;;;5105815;28;20503;-80
2024/03/04 01:39:37;;;;;;;2.65;2.55;;;8.10;99.90;;;;;;5098710;28;20198;-81
2024/03/04 01:42:04;;;;;;;2.15;2.05;;;8.30;99.90;;;;;;5097432;28;20225;-80
2024/03/04 01:44:33;;;;;;;2.33;2.20;;;8.20;99.90;;;;;;5109471;28;20302;-79
2024/03/04 01:47:03;;;;;;;1.15;1.15;;;8.30;99.90;;;;;;5113340;28;20236;-81
2024/03/04 01:49:32;;;;;;;1.77;1.67;;;8.20;99.90;;;;;;5107676;28;20207;-80
2024/03/04 01:52:00;;;;;;;8.73;3.95;;;8.10;99.90;;;;;;5101360;28;20206;-79
2024/03/04 01:54:27;;;;;;;3.13;2.88;;;8.20;99.90;;;;;;5105938;28;20418;-81
2024/03/04 01:56:57;;;;;;;1.75;1.65;;;8.00;99.90;;;;;;5114103;28;20277;-80
2024/03/04 01:59:26;;;;;;;3.42;3.22;;;8.10;99.90;;;;;;5076422;28;21307;-80
2024/03/04 02:01:54;;;;;;;3.70;2.78;;;8.00;99.90;;;;;;5095847;28;20206;-79
2024/03/04 02:04:22;;;;;;;4.43;4.20;;;7.90;99.90;;;;;;5107485;28;20209;-82
2024/03/04 02:06:50;;;;;;;3.03;2.90;;;7.80;99.90;;;;;;5114586;28;20222;-82
2024/03/04 02:09:19;;;;;;;12.38;4.22;;;7.90;99.90;;;;;;5094869;28;20221;-83
2024/03/04 02:11:47;;;;;;;4.32;4.03;;;7.90;99.90;;;;;;5104231;28;20218;-81
2024/03/04 02:14:15;;;;;;;5.05;4.72;;;7.80;99.90;;;;;;5101375;28;20249;-83
2024/03/04 02:16:44;;;;;;;2.95;2.85;;;7.70;99.90;;;;;;5100904;28;20234;-81
2024/03/04 02:19:17;;;;;;;4.05;3.80;;;7.70;99.90;;;;;;5100963;28;20224;-77
2024/03/04 02:21:55;;;;;;;4.93;4.53;;;7.70;99.90;;;;;;5106621;28;20217;-80
2024/03/04 02:24:22;;;;;;;3.83;3.60;;;7.60;99.90;;;;;;5095639;28;20432;-79
2024/03/04 02:26:50;;;;;;;3.63;2.80;;;7.80;99.90;;;;;;5074119;28;20259;-79
2024/03/04 02:29:18;;;;;;;4.80;4.35;;;7.70;99.90;;;;;;5090994;28;20245;-80
2024/03/04 02:31:47;;;;;;;2.30;2.20;;;7.60;99.90;;;;;;5075889;28;20246;-80
2024/03/04 02:34:16;;;;;;;4.07;3.88;;;7.60;99.90;;;;;;5099776;28;20230;-80
2024/03/04 02:36:44;;;;;;;6.47;4.57;;;7.60;99.90;;;;;;5083233;28;20260;-79
2024/03/04 02:39:13;;;;;;;5.88;5.38;;;7.50;99.90;;;;;;5100263;28;20293;-81
2024/03/04 02:41:40;;;;;;;2.30;2.20;;;7.50;99.90;;;;;;5089934;28;20198;-81
2024/03/04 02:44:08;;;;;;;3.72;3.40;;;7.60;99.90;;;;;;5092035;28;20231;-81
2024/03/04 02:46:39;;;;;;;3.50;3.25;;;7.50;99.90;;;;;;5095953;28;20550;-81
2024/03/04 02:49:07;;;;;;;2.22;1.85;;;7.40;99.90;;;;;;5095227;28;20294;-81
2024/03/04 02:51:35;;;;;;;4.43;4.15;;;7.40;99.90;;;;;;5101146;28;20718;-79
2024/03/04 02:54:05;;;;;;;2.60;2.45;;;7.40;99.90;;;;;;5121243;28;20231;-81
2024/03/04 02:56:32;;;;;;;3.08;2.88;;;7.30;99.90;;;;;;5098388;28;20190;-82
2024/03/04 02:58:59;;;;;;;1.48;1.48;;;7.30;99.90;;;;;;5109784;28;20255;-82
2024/03/04 03:01:27;;;;;;;6.18;5.68;;;7.40;99.90;;;;;;5115993;28;20259;-81
2024/03/04 03:03:54;;;;;;;2.17;2.05;;;7.30;99.90;;;;;;5092247;28;20503;-81
2024/03/04 03:06:21;;;;;;;8.52;4.50;;;7.20;99.90;;;;;;5107417;28;20241;-81
2024/03/04 03:08:49;;;;;;;1.90;1.80;;;7.20;99.90;;;;;;5107872;28;20439;-81
2024/03/04 03:11:18;;;;;;;2.85;2.75;;;7.20;99.90;;;;;;5101192;28;20248;-80
2024/03/04 03:13:51;;;;;;;4.10;3.47;;;7.20;99.90;;;;;;5100792;28;20212;-82
2024/03/04 03:16:20;;;;;;;4.38;3.72;;;7.10;99.90;;;;;;5093633;28;20262;-80
2024/03/04 03:18:51;;;;;;;3.70;3.30;;;7.00;99.90;;;;;;5094493;28;20208;-81
2024/03/04 03:21:17;;;;;;;3.00;2.53;;;6.90;99.90;;;;;;5090237;28;20283;-80
2024/03/04 03:23:50;;;;;;;3.55;3.42;;;6.80;99.90;;;;;;5098572;28;20274;-80
2024/03/04 03:26:17;;;;;;;3.05;2.85;;;7.00;99.90;;;;;;5073223;28;20663;-78
2024/03/04 03:28:45;;;;;;;5.13;3.85;;;7.10;99.90;;;;;;5068549;28;20222;-79
2024/03/04 03:31:12;;;;;;;6.60;6.10;;;7.00;99.90;;;;;;5088612;28;20195;-79
2024/03/04 03:33:39;;;;;;;2.70;2.60;;;6.90;99.90;;;;;;5094229;28;20205;-79
2024/03/04 03:36:06;;;;;;;5.00;3.97;;;6.90;99.90;;;;;;5071513;28;20203;-79
2024/03/04 03:38:34;;;;;;;4.18;3.83;;;6.90;99.90;;;;;;5079059;28;20836;-79
2024/03/04 03:41:04;;;;;;;2.35;2.25;;;6.80;99.90;;;;;;5086501;28;20278;-78
2024/03/04 03:43:31;;;;;;;4.95;4.43;;;6.80;99.90;;;;;;5086985;28;20455;-80
2024/03/04 03:46:01;;;;;;;5.90;4.00;;;6.80;99.90;;;;;;5084433;28;20202;-79
2024/03/04 03:48:29;;;;;;;3.33;3.13;;;6.80;99.90;;;;;;5087046;28;20204;-80
2024/03/04 03:50:56;;;;;;;7.05;3.65;;;6.70;99.90;;;;;;5082620;28;20203;-80
2024/03/04 03:53:25;;;;;;;4.60;4.30;;;6.50;99.90;;;;;;5087710;28;20211;-80
2024/03/04 03:55:52;;;;;;;2.45;2.35;;;6.60;99.90;;;;;;5089281;28;20463;-81
2024/03/04 03:58:19;;;;;;;2.85;2.65;;;6.90;99.90;;;;;;5100814;28;20210;-80
2024/03/04 04:00:46;;;;;;;4.60;3.80;;;6.60;99.90;;;;;;5065193;28;20250;-81
2024/03/04 04:03:13;;;;;;;2.53;2.42;;;6.80;99.90;;;;;;5075230;28;20207;-81
2024/03/04 04:05:40;;;;;;;3.40;3.30;;;6.70;99.90;;;;;;5092891;28;20244;-81
2024/03/04 04:08:08;;;;;;;3.70;3.50;;;6.60;99.90;;;;;;5096552;28;20285;-86
2024/03/04 04:10:37;;;;;;;3.42;3.10;;;6.60;99.90;;;;;;5101571;28;20202;-83
2024/03/04 04:13:05;;;;;;;3.30;2.33;;;6.60;99.90;;;;;;5096638;28;20207;-83
2024/03/04 04:15:33;;;;;;;5.05;4.22;;;6.60;99.90;;;;;;5094793;28;20252;-84
2024/03/04 04:18:02;;;;;;;5.70;5.20;;;6.50;99.90;;;;;;5093680;28;20207;-82
2024/03/04 04:20:30;;;;;;;5.07;4.82;;;6.50;99.90;;;;;;5077661;28;20216;-84
2024/03/04 04:22:58;;;;;;;4.63;4.30;;;6.50;99.90;;;;;;5092725;28;20209;-84
2024/03/04 04:25:26;;;;;;;7.35;5.05;;;6.50;99.90;;;;;;5102973;28;20518;-83
2024/03/04 04:27:55;;;;;;;2.90;2.65;;;6.50;99.90;;;;;;5088020;28;20286;-84
2024/03/04 04:30:23;;;;;;;7.78;7.03;;;6.50;99.90;;;;;;5095939;28;20199;-83
2024/03/04 04:32:50;;;;;;;5.43;4.38;;;6.50;99.90;;;;;;5085849;28;20199;-83
2024/03/04 04:35:19;;;;;;;4.93;4.63;;;6.40;99.90;;;;;;5078420;28;20207;-84
2024/03/04 04:37:48;;;;;;;8.82;4.57;;;6.30;99.90;;;;;;5092532;28;20387;-82
2024/03/04 04:40:19;;;;;;;5.50;5.15;;;6.30;99.90;;;;;;5094271;28;20234;-82
2024/03/04 04:42:46;;;;;;;2.88;2.78;;;6.40;99.90;;;;;;5090188;28;20298;-80
2024/03/04 04:45:14;;;;;;;7.35;5.88;;;6.30;99.90;;;;;;5098174;28;20269;-81
2024/03/04 04:47:43;;;;;;;6.07;5.57;;;6.30;99.90;;;;;;5089580;28;20258;-83
2024/03/04 04:50:12;;;;;;;4.00;2.50;;;6.30;99.90;;;;;;5110114;28;20234;-83
2024/03/04 04:52:39;;;;;;;3.08;2.97;;;6.20;99.90;;;;;;5108936;28;20211;-82
2024/03/04 04:55:07;;;;;;;3.83;3.60;;;6.30;99.90;;;;;;5109948;28;20439;-82
2024/03/04 04:57:34;;;;;;;3.33;2.65;;;6.20;99.90;;;;;;5079151;28;20217;-82
2024/03/04 05:00:03;;;;;;;18.00;8.23;;;6.20;99.90;;;;;;5100026;28;20211;-81
2024/03/04 05:02:33;;;;;;;4.22;3.78;;;6.30;99.90;;;;;;5097907;28;20242;-82
2024/03/04 05:05:00;;;;;;;3.78;3.42;;;6.20;99.90;;;;;;5104169;28;20233;-84
2024/03/04 05:07:28;;;;;;;7.03;4.72;;;6.20;99.90;;;;;;5099435;28;20230;-82
2024/03/04 05:09:55;;;;;;;6.30;5.75;;;6.10;99.90;;;;;;5068514;28;20202;-80
2024/03/04 05:12:23;;;;;;;2.45;2.35;;;6.10;99.90;;;;;;5076316;28;20203;-83
2024/03/04 05:14:52;;;;;;;3.03;2.33;;;6.20;99.90;;;;;;5088593;28;20222;-91
2024/03/04 05:17:20;;;;;;;3.50;3.30;;;6.20;99.90;;;;;;5089758;28;20226;-78
2024/03/04 05:19:47;;;;;;;3.55;3.30;;;6.30;99.90;;;;;;5097767;28;20192;-80
2024/03/04 05:22:14;;;;;;;8.52;4.07;;;6.00;99.90;;;;;;5079490;28;20548;-82
2024/03/04 05:24:41;;;;;;;9.13;6.55;;;6.00;99.90;;;;;;5094053;28;20235;-80
2024/03/04 05:27:08;;;;;;;3.88;3.55;;;5.90;99.90;;;;;;5089085;28;20223;-80
2024/03/04 05:29:35;;;;;;;7.22;4.65;;;6.00;99.90;;;;;;5094586;28;20733;-79
2024/03/04 05:32:04;;;;;;;2.90;2.70;;;6.00;99.90;;;;;;5085938;28;20203;-80
2024/03/04 05:34:37;;;;;;;9.77;8.95;;;6.00;99.90;;;;;;5095968;28;20233;-80
2024/03/04 05:37:06;;;;;;;9.40;4.32;;;6.00;99.90;;;;;;5095904;28;20206;-82
2024/03/04 05:39:34;;;;;;;6.13;5.72;;;5.80;99.90;;;;;;5091036;28;20281;-80
2024/03/04 05:42:01;;;;;;;4.90;4.57;;;5.90;99.90;;;;;;5088896;28;20213;-81
2024/03/04 05:44:28;;;;;;;5.38;4.93;;;5.90;99.90;;;;;;5099844;28;20281;-81
2024/03/04 05:46:55;;;;;;;6.30;4.22;;;5.80;99.90;;;;;;5101892;28;20301;-81
2024/03/04 05:49:23;;;;;;;3.25;3.03;;;5.80;99.90;;;;;;5104155;28;20222;-82
2024/03/04 05:51:52;;;;;;;5.00;4.57;;;5.80;99.90;;;;;;5100787;28;20206;-81
2024/03/04 05:54:19;;;;;;;6.28;4.32;;;5.80;99.90;;;;;;5096614;28;20203;-79
2024/03/04 05:56:46;;;;;;;12.00;5.55;;;5.90;99.90;;;;;;5100250;28;20235;-79
2024/03/04 05:59:13;;;;;;;2.85;2.75;;;5.90;99.90;;;;;;5100827;28;20403;-81
2024/03/04 06:01:42;;;;;;;4.97;4.65;;;5.90;99.90;;;;;;5093806;28;20205;-82
2024/03/04 06:04:09;;;;;;;6.93;6.43;;;5.90;99.90;;;;;;5100829;28;20207;-81
2024/03/04 06:06:37;;;;;;;2.65;2.55;;;6.00;99.90;;;;;;5098946;28;20211;-81
2024/03/04 06:09:08;;;;;;;4.45;4.10;;;6.00;99.90;;;;;;5097537;28;20202;-80
2024/03/04 06:11:35;;;;;;;6.68;6.28;;;5.80;99.90;;;;;;5103176;28;20206;-83
2024/03/04 06:14:04;;;;;;;4.03;3.83;;;6.00;99.90;;;;;;5103545;28;20240;-80
2024/03/04 06:16:31;;;;;;;6.03;5.30;;;6.10;99.90;;;;;;5096967;28;20243;-82
2024/03/04 06:18:58;;;;;;;9.65;4.03;;;6.00;99.90;;;;;;5071349;28;20294;-79
2024/03/04 06:21:26;;;;;;;3.35;3.10;;;6.10;99.90;;;;;;5100515;28;20207;-80
2024/03/04 06:23:53;;;;;;;6.68;6.20;;;6.10;99.90;;;;;;5103935;28;20262;-80
2024/03/04 06:26:20;;;;;;;4.20;3.90;;;6.00;99.90;;;;;;5092372;28;20203;-80
2024/03/04 06:28:47;;;;;;;4.28;3.88;;;6.10;99.90;;;;;;5099821;28;20222;-80
2024/03/04 06:31:16;;;;;;;4.72;4.43;;;6.90;99.90;;;;;;5095447;28;20202;-80
2024/03/04 06:33:44;;;;;;;4.93;4.60;;;7.10;99.90;;;;;;5075275;28;20206;-80
2024/03/04 06:36:20;;;;;;;3.65;3.35;;;7.30;99.90;;;;;;5107212;28;20370;-81
2024/03/04 06:38:48;;;;;;;6.65;5.97;;;7.50;99.90;;;;;;5093690;28;20219;-80
2024/03/04 06:41:15;;;;;;;3.60;3.45;;;7.40;99.90;;;;;;5101363;28;20450;-82
2024/03/04 06:43:43;;;;;;;10.23;7.07;;;8.00;99.90;;;;;;5093912;28;20278;-83
2024/03/04 06:46:10;;;;;;;3.42;3.30;;;8.10;99.90;;;;;;5091023;28;20284;-81
2024/03/04 06:48:40;;;;;;;3.97;3.78;;;7.70;99.90;;;;;;5099445;28;20280;-81
2024/03/04 06:51:07;;;;;;;2.17;2.08;;;8.00;99.90;;;;;;5082619;28;20214;-80
2024/03/04 06:53:34;;;;;;;4.55;2.70;;;8.30;99.90;;;;;;5087673;28;20238;-80
2024/03/04 06:56:01;;;;;;;6.85;6.45;;;8.00;99.90;;;;;;5092888;28;20218;-81
2024/03/04 06:58:28;;;;;;;1.58;1.52;;;7.80;99.90;;;;;;5092975;28;20197;-80
2024/03/04 07:00:55;;;;;;;4.05;3.78;;;7.70;99.90;;;;;;5093805;28;20229;-80
2024/03/04 07:03:23;;;;;;;2.75;2.63;;;8.50;99.90;;;;;;5103896;28;20198;-83
2024/03/04 07:05:50;;;;;;;5.55;5.05;;;8.20;99.90;;;;;;5075952;28;20262;-83
2024/03/04 07:08:16;;;;;;;2.97;2.70;;;7.80;99.90;;;;;;5074268;28;20533;-81
2024/03/04 07:10:44;;;;;;;3.83;3.60;;;7.80;99.90;;;;;;5093619;28;20209;-82
2024/03/04 07:13:11;;;;;;;4.30;3.95;;;8.60;99.90;;;;;;5093644;28;20467;-81
2024/03/04 07:15:43;;;;;;;2.38;2.28;;;9.10;99.90;;;;;;5093337;28;20252;-81
2024/03/04 07:18:10;;;;;;;4.00;3.70;;;8.70;99.90;;;;;;5095021;28;20417;-81
2024/03/04 07:20:38;;;;;;;2.78;2.63;;;8.60;99.90;;;;;;5069656;28;20207;-82
2024/03/04 07:23:08;;;;;;;1.20;1.20;;;8.50;99.90;;;;;;5105504;28;20190;-79
2024/03/04 07:25:37;;;;;;;1.92;1.83;;;8.70;99.90;;;;;;5106909;28;20193;-81
2024/03/04 07:28:04;;;;;;;3.80;3.60;;;8.60;99.90;;;;;;5100377;28;20408;-81
2024/03/04 07:30:32;;;;;;;1.08;1.08;;;8.70;99.90;;;;;;5096451;28;20223;-82
2024/03/04 07:32:59;;;;;;;1.92;1.83;;;9.30;99.90;;;;;;5092979;28;20538;-81
2024/03/04 07:35:27;;;;;;;2.70;2.60;;;9.30;99.90;;;;;;5090561;28;20202;-81
2024/03/04 07:37:55;;;;;;;4.20;3.97;;;9.60;99.90;;;;;;5096683;28;20554;-81
2024/03/04 07:40:22;;;;;;;2.20;2.00;;;10.10;99.90;;;;;;5097247;28;20203;-79
2024/03/04 07:42:48;;;;;;;3.35;3.15;;;10.50;99.90;;;;;;5093146;28;20483;-82
2024/03/04 07:45:17;;;;;;;3.78;3.47;;;10.50;99.90;;;;;;5092525;28;20555;-80
2024/03/04 07:47:44;;;;;;;2.13;2.03;;;11.90;99.90;;;;;;5093371;28;20245;-80
2024/03/04 07:50:11;;;;;;;2.00;1.77;;;12.10;99.90;;;;;;5084959;28;20377;-82
2024/03/04 07:52:38;;;;;;;4.35;3.95;;;12.40;99.90;;;;;;5090099;28;20219;-81
2024/03/04 07:55:07;;;;;;;6.38;6.03;;;12.60;99.90;;;;;;5095255;28;20282;-80
2024/03/04 07:57:35;;;;;;;2.47;2.37;;;12.30;99.90;;;;;;5098637;28;20212;-81
2024/03/04 08:00:04;;;;;;;5.77;5.13;;;12.50;99.90;;;;;;5092141;28;20473;-81
2024/03/04 08:02:35;;;;;;;3.23;3.03;;;12.40;99.90;;;;;;5068652;28;20428;-84
2024/03/04 08:05:02;;;;;;;1.27;1.27;;;12.20;99.90;;;;;;5097636;28;20504;-80
2024/03/04 08:07:29;;;;;;;4.33;3.93;;;13.40;99.90;;;;;;5079116;28;20483;-79
2024/03/04 08:09:58;;;;;;;2.63;2.53;;;13.90;99.90;;;;;;5076298;28;20482;-79
2024/03/04 08:12:25;;;;;;;2.57;2.47;;;13.20;99.90;;;;;;5097083;28;20431;-79
2024/03/04 08:14:52;;;;;;;1.60;1.50;;;14.00;99.90;;;;;;5094865;28;20444;-78
2024/03/04 08:17:19;;;;;;;2.30;2.20;;;14.50;99.90;;;;;;5076534;28;20442;-80
2024/03/04 08:19:54;;;;;;;9.17;4.10;;;14.20;99.90;;;;;;5114673;28;20409;-80
2024/03/04 08:22:24;;;;;;;2.67;2.57;;;13.50;99.90;;;;;;5121329;28;20401;-77
2024/03/04 08:24:52;;;;;;;3.00;2.80;;;13.10;99.90;;;;;;5105310;28;20431;-78
2024/03/04 08:27:20;;;;;;;3.63;3.43;;;14.00;99.90;;;;;;5109733;28;20425;-78
2024/03/04 08:29:50;;;;;;;5.07;4.00;;;13.90;99.90;;;;;;5071889;28;20523;-78
2024/03/04 08:32:17;;;;;;;2.20;2.10;;;15.20;99.90;;;;;;5089978;28;20653;-79
2024/03/04 08:34:47;;;;;;;2.83;2.13;;;15.10;99.90;;;;;;5092601;28;20406;-79
2024/03/04 08:37:14;;;;;;;3.50;3.27;;;14.60;99.90;;;;;;5091310;28;20922;-79
2024/03/04 08:39:42;;;;;;;5.30;5.00;;;15.00;99.90;;;;;;5109786;28;20417;-78
2024/03/04 08:42:09;;;;;;;2.70;2.50;;;14.00;99.90;;;;;;5076749;28;20510;-79
2024/03/04 08:44:36;;;;;;;2.70;2.60;;;13.70;99.90;;;;;;5104717;28;20480;-81
2024/03/04 08:47:03;;;;;;;4.27;4.03;;;13.30;99.90;;;;;;5079465;28;20516;-78
2024/03/04 08:49:32;;;;;;;2.97;2.87;;;12.50;99.90;;;;;;5092914;28;20484;-80
2024/03/04 08:52:01;;;;;;;2.73;2.63;;;12.30;99.90;;;;;;5072200;28;20425;-78
2024/03/04 08:54:31;;;;;;;3.83;3.63;;;11.80;99.90;;;;;;5101793;28;20572;-79
2024/03/04 08:56:58;;;;;;;2.23;2.13;;;12.50;99.90;;;;;;5090852;28;20439;-79
2024/03/04 08:59:26;;;;;;;3.87;3.60;;;12.10;99.90;;;;;;5100344;28;20511;-79
2024/03/04 09:01:53;;;;;;;6.20;2.53;;;11.70;99.90;;;;;;5088330;28;20509;-79
2024/03/04 09:04:21;;;;;;;3.13;3.03;;;11.90;99.90;;;;;;5099553;28;20442;-80
2024/03/04 09:06:49;;;;;;;4.87;3.20;;;12.40;99.90;;;;;;5101025;28;20812;-79
2024/03/04 09:09:16;;;;;;;5.13;3.50;;;12.50;99.90;;;;;;5078135;28;20507;-79
2024/03/04 09:11:46;;;;;;;5.03;4.50;;;12.40;99.90;;;;;;5102820;28;20433;-79
2024/03/04 09:14:14;;;;;;;2.20;2.10;;;12.50;99.90;;;;;;5078530;28;20406;-78
2024/03/04 09:16:41;;;;;;;5.73;5.33;;;13.00;99.90;;;;;;5087228;28;20787;-78
2024/03/04 09:19:10;;;;;;;5.90;3.07;;;12.40;99.90;;;;;;5096169;28;20523;-79
2024/03/04 09:21:38;;;;;;;2.00;1.90;;;11.80;99.90;;;;;;5092641;28;20800;-79
2024/03/04 09:24:05;;;;;;;4.83;3.50;;;12.30;99.90;;;;;;5090009;28;20855;-79
2024/03/04 09:26:32;;;;;;;3.07;2.90;;;12.50;99.90;;;;;;5088283;28;20499;-79
2024/03/04 09:28:59;;;;;;;5.27;3.37;;;12.30;99.90;;;;;;5095825;28;20490;-79
2024/03/04 09:31:26;;;;;;;4.20;3.93;;;12.50;99.90;;;;;;5084242;28;20513;-79
2024/03/04 09:33:53;;;;;;;2.23;2.13;;;12.70;99.90;;;;;;5096521;28;20467;-78
2024/03/04 09:36:20;;;;;;;7.97;4.87;;;12.20;99.90;;;;;;5092976;28;20455;-78
2024/03/04 09:38:47;;;;;;;10.90;6.47;;;12.10;99.90;;;;;;5098354;28;20438;-78
2024/03/04 09:41:14;;;;;;;5.40;5.03;;;12.40;99.90;;;;;;5098497;28;20478;-77
2024/03/04 09:43:43;;;;;;;4.20;4.00;;;12.10;99.90;;;;;;5103220;28;20710;-78
2024/03/04 09:46:12;;;;;;;2.67;2.53;;;12.00;99.90;;;;;;5108497;28;20450;-78
2024/03/04 09:48:41;;;;;;;5.93;5.30;;;12.20;99.90;;;;;;5097905;28;20483;-78
2024/03/04 09:51:08;;;;;;;2.50;2.40;;;12.20;99.90;;;;;;5081174;28;20692;-78
2024/03/04 09:53:37;;;;;;;2.57;2.47;;;12.20;99.90;;;;;;5100314;28;20456;-78
2024/03/04 09:56:05;;;;;;;4.43;4.20;;;12.00;99.90;;;;;;5097291;28;20467;-78
2024/03/04 09:58:36;;;;;;;5.47;3.87;;;12.00;99.90;;;;;;5099036;28;20415;-78
2024/03/04 10:01:05;;;;;;;1.75;1.65;;;12.20;99.90;;;;;;5090924;28;20509;-79
2024/03/04 10:03:33;;;;;;;6.10;4.93;;;12.20;99.90;;;;;;5100258;28;20276;-78
2024/03/04 10:06:02;;;;;;;4.00;3.80;;;12.10;99.90;;;;;;5096641;28;20646;-77
2024/03/04 10:08:29;;;;;;;3.37;3.17;;;12.20;99.90;;;;;;5098774;28;20891;-77
2024/03/04 10:10:58;;;;;;;4.15;3.95;;;12.30;99.90;;;;;;5093530;28;20483;-78
2024/03/04 10:13:26;;;;;;;1.25;1.25;;;12.20;99.90;;;;;;5085873;28;20253;-78
2024/03/04 10:15:53;;;;;;;6.20;5.60;;;12.40;99.90;;;;;;5102594;28;20293;-78
2024/03/04 10:18:20;;;;;;;4.68;4.38;;;12.70;99.90;;;;;;5101600;28;20460;-77
2024/03/04 10:20:48;;;;;;;2.50;2.40;;;12.40;99.90;;;;;;5111207;28;20201;-78
2024/03/04 10:23:17;;;;;;;3.23;3.13;;;12.40;99.90;;;;;;5102271;28;20229;-78
2024/03/04 10:25:44;;;;;;;7.57;4.90;;;12.70;99.90;;;;;;5096443;28;20468;-77
2024/03/04 10:28:14;;;;;;;4.83;3.23;;;12.60;99.90;;;;;;5072152;28;20301;-80
2024/03/04 10:30:41;;;;;;;2.65;2.55;;;12.60;99.90;;;;;;5089647;28;20460;-78
2024/03/04 10:33:08;;;;;;;2.20;2.10;;;12.60;99.90;;;;;;5089991;28;20208;-79
2024/03/04 10:35:35;;;;;;;7.17;4.43;;;12.70;99.90;;;;;;5091595;28;20759;-78
2024/03/04 10:38:03;;;;;;;4.18;3.88;;;12.50;99.90;;;;;;5105434;28;20453;-78
2024/03/04 10:40:33;;;;;;;1.93;1.83;;;12.70;99.90;;;;;;5081897;28;20391;-79
2024/03/04 10:43:03;;;;;;;2.50;2.40;;;12.70;99.90;;;;;;5099477;28;20438;-78
2024/03/04 10:45:33;;;;;;;3.75;3.45;;;12.70;99.90;;;;;;5091501;28;20557;-77
2024/03/04 10:48:02;;;;;;;2.55;2.45;;;12.70;99.90;;;;;;5083085;28;20213;-78
2024/03/04 10:50:29;;;;;;;2.63;2.53;;;12.70;99.90;;;;;;5096154;28;20202;-77
2024/03/04 10:52:57;;;;;;;2.23;2.13;;;12.90;99.90;;;;;;5101978;28;20761;-78
2024/03/04 10:55:29;;;;;;;15.03;6.67;;;12.90;99.90;;;;;;5070044;28;20498;-78
2024/03/04 10:58:01;;;;;;;2.03;1.93;;;13.00;99.90;;;;;;5092477;28;20851;-78
2024/03/04 11:00:32;;;;;;;5.13;4.77;;;13.10;99.90;;;;;;5087546;28;20439;-79
2024/03/04 11:02:59;;;;;;;2.17;2.07;;;13.20;99.90;;;;;;5092173;28;20758;-77
2024/03/04 11:05:32;;;;;;;1.47;1.47;;;13.20;99.90;;;;;;5091370;28;20539;-77
2024/03/04 11:08:04;;;;;;;2.57;2.40;;;13.10;99.90;;;;;;5100548;28;20434;-78
2024/03/04 11:10:36;;;;;;;2.77;1.73;;;13.20;99.90;;;;;;5107306;28;20510;-78
2024/03/04 11:13:32;;;;;;;5.70;4.87;;;13.40;99.90;;;;;;5073241;28;20845;-79
2024/03/04 11:16:07;;;;;;;2.73;2.63;;;13.20;99.90;;;;;;5087230;28;20439;-77
2024/03/04 11:18:54;;;;;;;1.37;1.37;;;13.30;99.90;;;;;;5097227;28;20439;-78
2024/03/04 11:21:22;;;;;;;2.40;2.30;;;13.20;99.90;;;;;;5097220;28;20508;-77
2024/03/04 11:23:50;;;;;;;5.87;3.67;;;13.20;99.90;;;;;;5092731;28;20588;-78
2024/03/04 11:26:19;;;;;;;5.37;2.93;;;13.30;99.90;;;;;;5087240;28;20755;-77
2024/03/04 11:28:47;;;;;;;3.53;3.33;;;13.40;99.90;;;;;;5096195;28;20489;-78
2024/03/04 11:31:25;;;;;;;4.27;3.93;;;13.20;99.90;;;;;;5083079;28;20823;-78
2024/03/04 11:34:01;;;;;;;3.77;3.63;;;13.30;99.90;;;;;;5082041;28;20458;-77
2024/03/04 11:36:32;;;;;;;1.70;1.67;;;13.40;99.90;;;;;;5097084;28;20450;-80
2024/03/04 11:39:04;;;;;;;8.13;3.80;;;13.40;99.90;;;;;;5100611;28;20457;-79
2024/03/04 11:41:45;;;;;;;3.37;3.17;;;13.30;99.90;;;;;;5092647;28;20442;-78
2024/03/04 11:44:12;;;;;;;3.73;3.23;;;13.50;99.90;;;;;;5106369;28;20537;-79
2024/03/04 11:46:44;;;;;;;4.20;4.00;;;13.40;99.90;;;;;;5095752;28;20518;-80
2024/03/04 11:49:32;;;;;;;1.57;1.50;;;13.40;99.90;;;;;;5111773;28;20490;-78
2024/03/04 11:52:07;;;;;;;4.53;4.27;;;13.20;99.90;;;;;;5106533;28;20514;-78
2024/03/04 11:54:34;;;;;;;0.80;0.80;;;13.10;99.90;;;;;;5105626;28;20429;-79
2024/03/04 11:57:07;;;;;;;1.83;1.73;;;13.10;99.90;;;;;;5105912;28;20441;-80
2024/03/04 11:59:39;;;;;;;4.90;4.43;;;13.20;99.90;;;;;;5087144;28;20460;-79
2024/03/04 12:02:11;;;;;;;3.37;3.10;;;13.30;99.90;;;;;;5091046;28;20435;-79
2024/03/04 12:04:40;;;;;;;4.67;4.43;;;13.40;99.90;;;;;;5093516;28;20437;-79
2024/03/04 12:07:08;;;;;;;1.80;1.70;;;13.60;99.90;;;;;;5090011;28;20438;-78
2024/03/04 12:09:35;;;;;;;2.23;2.13;;;13.60;99.90;;;;;;5098049;28;20478;-79
2024/03/04 12:12:22;;;;;;;3.97;3.67;;;13.70;99.90;;;;;;5082161;28;20438;-79
2024/03/04 12:14:51;;;;;;;3.43;3.20;;;13.90;99.90;;;;;;5090435;28;20466;-79
2024/03/04 12:17:18;;;;;;;2.63;2.50;;;14.30;99.90;;;;;;5099211;28;20445;-78
2024/03/04 12:19:56;;;;;;;5.17;4.77;;;14.20;99.90;;;;;;5097563;28;20443;-77
2024/03/04 12:22:27;;;;;;;2.20;2.10;;;14.50;99.90;;;;;;5089805;28;20451;-78
2024/03/04 12:25:04;;;;;;;1.50;1.40;;;14.70;99.90;;;;;;5087210;28;20467;-77
2024/03/04 12:27:32;;;;;;;3.70;3.50;;;14.80;99.90;;;;;;5078005;28;20446;-79
2024/03/04 12:30:19;;;;;;;2.30;2.20;;;15.20;99.90;;;;;;5068251;28;20445;-80
2024/03/04 12:32:48;;;;;;;4.80;4.37;;;15.10;99.90;;;;;;5095854;28;20454;-79
2024/03/04 12:35:23;;;;;;;4.83;2.30;;;14.80;99.90;;;;;;5080877;28;20489;-80
2024/03/04 12:37:52;;;;;;;2.40;2.30;;;14.80;99.90;;;;;;5085703;28;20458;-78
2024/03/04 12:40:23;;;;;;;8.70;5.43;;;14.50;99.90;;;;;;5089907;28;20566;-78
2024/03/04 12:42:59;;;;;;;5.80;5.50;;;14.40;99.90;;;;;;5097915;28;20507;-78
2024/03/04 12:45:27;;;;;;;1.67;1.63;;;14.40;99.90;;;;;;5095763;28;20439;-79
2024/03/04 12:47:58;;;;;;;4.87;4.57;;;14.10;99.90;;;;;;5088208;28;20458;-79
2024/03/04 12:50:28;;;;;;;6.53;4.20;;;14.10;99.90;;;;;;5090033;28;20540;-78
2024/03/04 12:52:57;;;;;;;2.40;2.20;;;14.20;99.90;;;;;;5087757;28;20793;-78
2024/03/04 12:55:25;;;;;;;3.63;3.50;;;14.20;99.90;;;;;;5085739;28;20511;-78
2024/03/04 12:57:55;;;;;;;4.87;4.50;;;14.10;99.90;;;;;;5090577;28;20415;-78
2024/03/04 13:00:22;;;;;;;1.90;1.80;;;14.30;99.90;;;;;;5098946;28;20453;-78
2024/03/04 13:02:50;;;;;;;2.87;2.77;;;14.20;99.90;;;;;;5091808;28;20444;-80